Date,TemperatureHighF,TemperatureAvgF,TemperatureLowF,DewpointHighF,DewpointAvgF,DewpointLowF,HumidityHigh,HumidityAvg,HumidityLow,PressureMaxIn,PressureMinIn,WindSpeedMaxMPH,WindSpeedAvgMPH,GustSpeedMaxMPH,PrecipitationSumIn
2013-1-8,51.3,51.1,50.9,48.5,48.3,48.1,91,90,90,29.73,29.71,30,22,35,0.29
2013-1-9,50.9,41.9,37.8,48.1,40.3,36.5,96,94,88,29.92,29.72,27,3,36,0.55
2013-1-10,38.3,37.1,35.4,36.9,34.9,32.1,96,92,87,30.24,30.06,14,1,14,0.01
2013-1-11,51.1,33.7,31.1,28.1,25.4,20.8,84,71,61,30.48,29.82,34,2,34,0.00
2013-1-12,39.7,34.3,31.3,35.7,27.6,22.0,91,77,61,30.51,29.89,11,1,11,1.18
2013-1-13,37.4,31.9,30.2,30.8,25.2,23.3,85,76,70,30.07,29.63,6,1,6,0.00
2013-1-14,39.0,36.7,34.7,34.3,31.1,28.3,84,80,75,30.09,30.05,11,5,11,0.00
2013-1-15,42.1,38.1,34.9,37.0,34.1,29.6,95,85,77,30.27,30.12,11,2,11,0.00
2013-1-16,42.3,36.1,32.0,38.0,33.7,30.8,100,91,80,30.26,30.07,10,1,10,0.00
2013-1-17,38.5,35.9,33.3,38.5,35.2,32.2,100,97,94,30.08,29.85,10,1,10,0.00
2013-1-18,37.2,36.0,34.5,37.0,35.8,34.5,100,99,97,29.92,29.84,10,1,10,0.00
2013-1-19,37.9,36.2,34.3,37.3,35.7,34.3,100,98,92,29.97,29.91,8,1,8,0.00
2013-1-20,45.1,38.4,35.6,41.6,37.5,34.0,100,97,85,29.99,29.83,8,1,8,0.00
2013-1-21,38.7,36.7,35.2,38.4,36.4,34.8,100,99,94,29.87,29.65,10,1,10,0.00
2013-1-22,40.6,37.2,33.6,39.7,36.4,32.8,100,97,92,29.70,29.45,9,1,9,0.00
2013-1-23,41.7,41.2,39.6,40.8,38.9,37.9,100,92,90,29.53,29.44,11,2,11,0.00
2013-1-24,41.5,41.5,41.5,38.8,38.8,38.8,90,90,90,29.45,29.45,2,2,8,0.00
2013-2-21,45.0,43.9,43.5,41.0,40.3,39.5,90,87,82,30.08,30.00,24,7,29,0.01
2013-2-22,48.6,43.8,41.9,45.5,41.2,36.1,95,91,70,29.90,29.68,30,13,43,0.02
2013-2-23,48.6,46.3,44.8,39.6,38.0,36.7,74,73,71,30.33,30.28,4,1,8,0.00
2013-2-24,46.9,45.6,42.4,41.3,39.6,38.3,85,79,75,30.37,30.15,27,12,34,0.00
2013-2-25,54.3,48.6,39.6,40.3,38.4,35.1,91,69,51,30.32,30.00,17,6,27,0.05
2013-2-26,46.9,45.3,37.6,39.8,38.1,36.0,94,76,67,30.39,30.22,17,8,21,0.00
2013-2-27,49.6,46.5,39.2,43.9,42.8,37.9,99,87,79,30.35,30.24,10,2,14,0.06
2013-2-28,51.6,49.6,42.6,50.8,48.7,42.4,99,97,92,30.35,30.23,28,11,34,0.15
2013-3-1,55.4,52.3,49.6,51.9,50.2,48.1,99,93,85,30.38,30.28,34,14,40,0.01
2013-3-2,55.4,51.1,43.0,49.6,47.6,41.0,96,88,77,30.29,30.07,28,11,37,0.02
2013-3-3,41.9,38.4,36.1,41.5,38.1,35.4,99,99,97,30.32,30.30,4,0,6,0.01
2013-3-4,52.5,47.8,41.9,36.7,34.9,31.9,76,61,49,30.25,30.00,9,4,14,0.08
2013-3-5,50.5,46.3,41.5,42.4,40.3,36.1,96,80,68,30.01,29.74,7,2,10,0.03
2013-3-6,43.5,42.2,40.6,42.5,41.0,39.3,98,95,92,29.90,29.59,13,4,25,0.32
2013-3-7,51.3,44.7,41.7,46.4,42.5,41.2,99,93,74,30.11,29.89,11,3,16,0.03
2013-3-8,54.0,45.2,39.6,47.2,40.8,36.5,98,86,61,30.25,30.08,10,2,14,0.00
2013-3-9,53.4,42.8,37.0,43.4,38.8,36.0,99,87,60,30.52,30.25,9,2,12,0.00
2013-3-10,48.4,43.5,40.3,43.4,40.7,38.1,97,90,82,30.53,30.45,6,2,8,0.00
2013-3-11,54.7,48.0,45.7,47.4,44.5,41.5,98,88,70,30.43,30.15,16,5,18,0.00
2013-3-12,54.5,51.2,47.1,50.7,48.9,46.4,99,92,82,30.16,30.04,29,16,40,0.00
2013-3-13,51.6,50.5,49.3,49.3,48.6,48.0,97,93,89,30.18,30.09,30,13,42,0.00
2013-3-14,54.3,49.7,47.7,48.8,47.1,44.1,99,91,72,30.14,30.03,22,12,32,0.00
2013-3-15,59.2,51.5,47.8,51.8,48.3,46.3,99,89,73,30.21,30.13,18,6,25,0.00
2013-3-16,54.9,46.3,37.9,47.0,42.8,36.1,94,88,66,30.15,29.87,22,6,34,0.00
2013-3-17,51.8,41.6,35.8,42.1,37.2,33.1,96,85,60,30.20,30.00,12,2,15,0.01
2013-3-18,54.9,44.7,39.0,45.1,38.2,34.7,92,79,55,30.26,30.12,17,4,23,0.00
2013-3-19,53.1,43.3,36.3,43.3,38.4,32.5,98,84,50,30.25,29.59,15,4,24,0.24
2013-3-20,52.7,47.0,37.6,49.9,43.2,35.1,99,87,67,30.03,29.37,31,11,47,0.22
2013-3-21,48.7,40.3,35.8,41.8,36.4,32.9,95,86,69,30.23,30.03,10,2,14,0.06
2013-3-22,49.5,39.6,34.0,43.3,33.7,27.5,96,80,60,30.40,30.22,8,2,11,0.09
2013-3-23,49.8,41.7,35.6,38.9,33.1,28.4,92,72,52,30.43,30.30,9,4,11,0.00
2013-3-24,55.9,43.6,35.4,42.8,35.0,29.3,91,73,41,30.34,30.12,4,1,6,0.00
2013-3-25,61.9,49.7,39.7,43.0,35.9,29.4,77,60,39,30.33,29.91,7,2,11,1.05
2013-3-26,56.5,49.1,44.4,45.0,40.2,35.8,84,71,60,30.04,29.96,5,2,8,0.01
2013-3-27,56.7,49.2,45.1,49.2,43.6,37.9,92,81,71,30.01,29.96,5,1,8,0.00
2013-3-28,60.1,50.7,44.8,53.9,46.7,42.9,97,87,69,30.15,30.01,8,2,10,0.10
2013-3-29,65.1,53.2,45.0,52.9,46.3,42.2,94,79,57,30.27,30.15,9,2,13,0.00
2013-3-30,65.8,52.9,41.5,49.4,44.7,40.2,96,75,54,30.29,30.09,13,3,16,0.00
2013-3-31,68.0,56.4,46.2,51.3,45.1,41.8,86,67,44,30.09,29.88,8,2,11,0.00
2013-4-1,59.2,51.6,45.9,51.1,46.9,42.6,96,85,68,30.17,29.96,11,4,16,0.00
2013-4-2,53.1,50.0,47.3,48.3,46.1,44.0,93,86,81,30.22,30.17,13,6,17,0.00
2013-4-3,60.6,51.6,44.8,52.8,46.0,42.4,95,82,63,30.23,29.97,8,2,11,0.00
2013-4-4,53.4,50.7,48.4,53.1,48.3,44.1,99,92,79,29.97,29.63,24,5,29,0.27
2013-4-5,59.7,52.3,48.4,52.5,49.5,47.1,99,91,74,29.86,29.70,21,11,30,0.05
2013-4-6,55.6,49.3,45.7,48.7,46.0,43.5,99,89,72,29.90,29.68,27,11,36,0.02
2013-4-7,46.4,43.8,40.8,44.6,42.5,40.0,99,95,90,29.90,29.55,8,2,11,0.72
2013-4-8,54.1,48.2,43.2,49.4,45.1,42.9,99,90,72,30.28,29.90,8,3,11,0.02
2013-4-9,51.3,47.9,43.7,45.8,44.1,41.8,95,87,75,30.36,30.16,17,8,24,0.00
2013-4-10,59.7,52.0,48.2,55.3,47.2,43.4,99,84,64,30.26,29.92,19,7,27,0.06
2013-4-11,55.4,48.0,44.8,47.4,42.2,38.4,97,81,61,30.31,30.21,10,2,13,0.02
2013-4-12,45.9,43.8,41.5,45.1,40.9,38.4,99,89,81,30.22,29.66,22,7,31,0.04
2013-4-13,52.2,43.5,37.6,46.3,40.5,36.0,95,89,74,30.01,29.73,14,4,22,0.43
2013-4-14,53.4,45.7,39.4,47.2,40.1,35.9,98,82,56,30.04,29.90,8,2,12,0.01
2013-4-15,56.5,46.1,37.9,45.4,40.2,37.2,98,81,57,30.19,29.96,11,2,16,0.01
2013-4-16,58.3,48.2,40.3,46.8,40.1,31.9,97,75,49,30.41,30.19,9,2,14,0.00
2013-4-17,54.7,47.7,42.8,44.9,40.9,34.4,89,77,68,30.48,30.40,12,5,17,0.15
2013-4-18,50.5,47.4,43.5,48.3,44.0,39.7,93,88,83,30.47,30.21,19,8,26,0.00
2013-4-19,54.9,50.7,48.7,53.8,49.5,47.9,99,96,92,30.21,30.06,23,4,36,0.11
2013-4-20,53.6,48.8,45.7,50.0,47.3,45.4,99,95,81,30.29,30.19,7,2,10,0.17
2013-4-21,55.9,47.1,42.8,51.0,43.8,37.8,99,89,68,30.40,30.22,11,2,17,0.05
2013-4-22,61.0,50.8,42.4,45.4,36.4,27.5,91,61,30,30.55,30.39,14,4,20,0.00
2013-4-23,63.5,50.7,39.2,46.3,37.5,30.4,85,63,30,30.45,30.23,12,3,17,0.00
2013-4-24,68.0,54.6,43.3,52.3,43.0,35.8,93,67,38,30.36,30.06,7,2,10,0.00
2013-4-25,67.8,56.2,45.9,51.4,44.2,37.9,86,66,39,30.18,30.05,8,3,11,0.00
2013-4-26,62.6,53.0,45.3,54.2,48.3,44.8,99,85,59,30.29,30.17,10,2,14,0.00
2013-4-27,57.0,53.1,50.2,51.2,47.9,44.8,95,83,75,30.21,30.16,14,5,19,0.00
2013-4-28,57.7,51.1,46.6,53.4,48.0,45.0,99,90,73,30.24,29.94,20,3,30,0.03
2013-4-29,57.9,49.6,44.1,48.6,42.5,35.5,98,78,55,30.17,29.91,17,4,23,0.00
2013-4-30,53.6,46.5,40.5,42.5,37.8,34.0,89,72,53,30.47,30.16,14,4,18,0.01
2013-5-1,64.6,51.2,39.2,47.9,39.1,31.9,94,66,35,30.62,30.47,8,2,12,0.00
2013-5-2,68.2,55.5,43.5,54.2,43.1,37.8,87,64,41,30.58,30.38,14,3,22,0.00
2013-5-3,68.0,57.1,48.7,53.3,47.2,41.5,83,70,52,30.42,30.30,12,4,18,0.00
2013-5-13,63.1,56.9,48.9,58.8,51.9,44.4,98,84,64,30.21,29.93,18,8,40,0.12
2013-5-14,63.9,54.0,47.8,51.6,47.8,44.8,98,81,56,30.26,30.12,8,4,13,0.00
2013-5-15,60.4,53.3,47.3,54.7,50.0,45.4,99,89,63,30.15,30.03,10,3,13,0.00
2013-5-16,71.4,58.7,52.0,59.4,54.3,51.7,99,87,61,30.04,29.86,9,3,14,0.00
2013-5-17,60.4,55.5,52.9,54.8,52.9,51.6,99,91,76,30.04,29.95,15,6,21,0.07
2013-5-18,61.7,55.0,50.9,56.1,51.6,49.8,98,89,79,30.29,30.04,11,4,18,0.00
2013-5-19,65.3,56.4,51.4,56.1,52.6,48.6,97,88,72,30.42,30.28,7,2,10,0.00
2013-5-20,64.2,54.6,46.8,56.9,50.8,46.5,99,88,68,30.38,29.92,9,3,14,0.00
2013-5-21,56.1,49.8,46.2,54.7,49.1,46.0,99,97,91,29.93,29.80,8,2,10,0.53
2013-5-22,55.2,49.5,46.8,54.0,48.6,46.5,99,97,88,29.97,29.87,11,2,15,0.02
2013-5-23,58.8,50.0,45.7,53.6,47.6,45.4,99,92,75,30.02,29.95,14,4,19,0.01
2013-5-24,63.0,53.5,46.2,56.2,50.0,46.0,99,89,72,30.07,29.99,13,4,17,0.00
2013-5-25,61.5,54.1,50.5,52.6,50.5,48.6,99,88,70,30.07,29.99,12,5,14,0.03
2013-5-26,59.4,53.6,48.7,56.9,52.0,48.5,99,94,85,30.01,29.97,12,4,15,0.06
2013-5-27,57.0,53.8,51.4,56.0,53.3,50.7,99,98,93,29.98,29.70,15,7,19,0.10
2013-5-28,63.1,55.5,51.4,55.5,51.9,49.3,99,88,70,29.88,29.77,17,8,26,0.00
2013-5-29,57.4,52.3,50.0,55.5,51.2,48.3,99,96,89,29.98,29.71,8,2,11,0.20
2013-5-30,61.5,54.0,49.3,53.5,50.1,47.9,97,87,71,30.26,29.97,16,5,22,0.00
2013-5-31,68.5,56.3,48.9,55.4,50.2,46.1,99,81,58,30.36,30.26,8,3,11,0.00
2013-6-1,70.0,58.3,50.0,55.2,50.5,46.2,91,76,55,30.27,30.06,11,3,16,0.00
2013-6-2,67.3,59.5,52.3,56.7,51.9,48.6,93,76,63,30.11,30.03,11,3,15,0.01
2013-6-3,72.0,57.9,50.7,60.7,53.4,6.6,99,86,63,30.17,30.05,7,2,24,4.42
2013-6-4,79.7,63.8,50.0,62.2,54.2,49.2,99,74,44,30.16,30.00,59,2,59,4.42
2013-6-5,75.6,63.9,53.8,64.2,57.4,51.2,96,80,63,30.10,30.00,8,2,14,0.00
2013-6-6,78.1,62.5,51.6,62.2,55.6,50.2,99,80,50,30.08,29.98,8,2,10,0.00
2013-6-7,67.5,59.4,54.9,58.5,53.7,49.4,94,82,68,30.16,30.02,11,3,17,0.00
2013-6-8,69.8,59.1,53.6,58.7,52.8,50.0,89,80,64,30.21,30.10,6,2,9,0.00
2013-6-9,67.6,57.1,50.5,58.0,51.7,47.0,95,83,66,30.14,30.03,8,2,14,0.00
2013-6-10,70.5,57.3,47.7,57.6,51.1,46.0,95,81,58,30.06,29.86,8,2,11,0.00
2013-6-11,64.6,56.5,52.0,57.2,51.6,48.7,93,84,67,30.10,29.93,11,4,16,0.02
2013-6-12,68.0,56.5,48.4,57.7,51.8,47.5,99,85,63,30.16,30.10,15,4,19,0.00
2013-6-13,70.9,59.3,51.4,59.3,54.0,50.6,99,84,59,30.22,30.15,8,2,11,0.00
2013-6-14,60.6,54.6,53.2,57.0,52.2,50.7,93,91,83,30.25,30.21,9,4,14,0.00
2013-6-26,59.2,57.7,56.8,58.7,57.4,56.4,99,99,99,29.93,29.92,11,8,13,0.03
2013-7-1,82.4,74.8,63.9,70.0,65.5,60.6,89,73,62,30.01,29.89,7,2,13,0.00
2013-7-2,74.8,62.3,58.5,67.9,60.5,58.2,99,94,76,30.13,30.01,5,1,9,0.00
2013-10-1,59.7,54.9,52.5,52.7,50.2,48.3,94,85,71,30.11,29.97,21,11,29,0.00
2013-10-2,53.4,50.3,47.5,51.0,49.5,47.2,99,97,90,30.16,30.05,12,4,17,0.36
2013-10-3,60.4,51.3,47.7,56.5,49.9,47.4,99,95,79,30.46,30.16,5,1,7,0.00
2013-10-4,60.4,50.7,44.8,54.9,48.3,44.5,99,92,70,30.50,30.35,6,1,8,0.02
2013-10-5,68.9,55.1,47.1,57.7,51.2,46.9,99,88,64,30.37,30.13,7,1,8,0.00
2013-10-6,70.9,56.3,47.5,55.5,50.7,46.5,99,83,46,30.14,29.85,18,6,26,0.00
2013-10-7,62.2,55.7,54.0,57.6,53.5,51.6,99,93,78,29.97,29.86,24,11,33,0.00
2013-10-8,57.4,52.0,48.0,53.9,47.9,44.7,99,87,70,30.08,29.90,13,3,17,0.02
2013-10-9,58.3,51.2,45.0,52.3,47.5,44.7,99,88,76,30.15,29.96,8,2,11,0.00
2013-10-10,60.8,51.8,48.4,54.4,49.7,47.6,99,93,74,30.08,29.94,6,2,8,0.00
2013-10-11,55.2,51.1,48.6,53.1,49.7,48.1,99,95,87,30.16,30.07,5,1,7,0.00
2013-10-12,58.3,50.9,47.1,53.9,49.1,46.0,99,94,76,30.24,30.08,7,2,13,0.05
2013-10-13,59.5,50.2,43.5,53.9,47.8,43.3,99,92,73,30.38,30.23,4,1,8,0.01
2013-10-14,61.2,50.6,45.1,52.1,47.5,44.9,99,90,68,30.44,30.33,7,1,11,0.00
2013-10-15,58.1,49.4,44.8,55.2,48.2,44.5,99,96,86,30.41,30.17,7,1,8,0.00
2013-10-16,59.0,51.5,47.5,53.2,49.6,47.2,99,93,80,30.22,30.15,7,1,11,0.00
2013-10-17,60.6,51.6,48.0,53.5,49.7,47.1,99,94,75,30.29,30.20,6,1,8,0.00
2013-10-18,60.3,48.9,45.0,55.3,48.0,44.7,99,97,82,30.27,30.15,5,1,8,0.00
2013-10-19,50.0,46.4,43.5,49.7,46.2,43.3,99,99,99,30.20,30.16,5,1,8,0.01
2013-10-20,50.0,48.3,47.3,49.7,48.0,47.0,99,99,97,30.22,30.16,5,1,8,0.00
2013-10-21,50.9,48.4,46.8,50.6,48.1,46.5,99,99,99,30.18,30.10,5,1,8,0.00
2013-10-22,56.5,49.3,46.6,53.4,48.6,46.3,99,98,87,30.14,30.02,4,1,8,0.00
2013-10-23,55.9,48.1,45.1,53.9,47.6,44.9,99,98,90,30.08,29.97,8,1,9,0.00
2013-10-24,49.6,46.0,43.5,49.4,45.8,43.3,99,99,99,30.09,30.04,4,0,5,0.01
2013-10-25,54.3,51.1,48.9,54.0,50.6,48.7,99,98,95,30.30,30.26,7,3,9,0.00
2013-10-26,50.4,49.9,49.8,49.9,49.7,49.6,99,99,99,30.35,30.34,0,0,0,0.00
2013-10-28,56.7,54.3,52.5,39.1,37.6,36.1,56,53,46,29.96,29.88,15,10,21,0.00
2013-10-29,56.7,56.7,56.7,36.1,36.1,36.1,46,46,46,29.88,29.88,11,11,17,0.00
2013-11-2,52.3,51.1,50.2,52.1,49.0,47.1,99,93,88,29.47,29.41,41,25,53,0.00
2013-11-9,51.3,47.9,45.3,49.4,46.3,44.8,99,94,88,30.13,30.08,4,1,8,0.06
2013-11-10,49.6,47.0,45.3,48.1,45.8,44.5,99,96,92,30.18,30.10,9,3,14,0.08
2013-11-11,57.9,49.8,45.5,51.1,46.6,44.2,96,89,68,30.18,29.99,8,3,11,0.00
2013-11-12,62.8,53.2,49.6,56.9,51.1,45.1,99,93,76,30.36,30.02,17,8,24,0.04
2013-11-13,60.8,52.7,49.8,54.6,50.2,47.8,96,92,77,30.43,30.32,14,3,20,0.00
2013-11-14,62.8,48.2,44.1,50.7,47.3,-33.1,99,97,93,30.32,29.66,125,0,125,0.02
2013-11-15,55.9,50.3,43.5,53.6,48.4,-50.2,99,93,84,30.31,29.49,38,10,38,0.21
2013-11-16,56.1,46.7,40.3,45.4,39.8,36.7,93,77,61,30.15,29.50,16,3,16,0.01
2013-11-17,56.7,48.8,40.6,47.4,43.3,36.1,86,81,70,30.20,30.07,29,12,29,0.00
2013-11-18,54.3,50.4,48.2,50.2,47.2,43.9,93,89,84,30.57,29.49,29,12,29,0.73
2013-11-19,52.5,43.8,37.4,50.6,37.1,21.6,93,78,51,30.25,29.80,26,4,28,0.07
2013-11-20,45.7,39.8,34.9,32.5,26.9,22.6,70,60,49,30.59,30.25,18,6,18,0.00
2013-11-21,62.8,52.0,34.0,57.4,46.7,24.4,99,83,46,29.96,29.48,22,10,22,0.00
2013-11-22,46.9,39.1,34.0,33.8,30.2,26.4,78,70,57,29.95,29.75,13,3,13,0.00
2013-11-23,55.4,46.5,37.6,53.5,41.4,29.9,95,82,60,30.22,29.01,18,6,18,9.33
2013-11-24,52.5,42.7,37.8,44.0,38.3,34.5,89,85,71,29.95,29.85,7,1,7,0.00
2013-11-25,50.5,43.3,39.6,43.1,39.0,36.6,92,85,69,30.02,29.95,8,1,9,0.00
2013-11-26,49.8,44.1,37.8,43.8,39.9,35.1,92,86,74,29.98,29.79,8,1,8,0.01
2013-11-27,55.2,47.2,41.5,45.3,40.5,37.1,86,78,61,29.79,29.65,8,2,8,0.00
2013-11-28,43.0,41.0,39.4,40.7,38.2,36.1,93,89,85,29.88,29.71,2,0,2,0.01
2013-11-29,49.1,45.1,41.9,45.1,42.3,39.8,93,90,82,30.00,29.88,7,1,7,0.01
2013-11-30,50.4,49.2,47.5,46.1,44.7,43.2,90,84,79,30.00,29.76,16,6,16,0.02
2013-12-1,53.8,50.9,42.3,49.7,45.8,37.1,89,83,76,29.77,29.43,21,8,21,0.00
2013-12-2,48.9,40.3,33.8,37.3,33.7,11.0,88,78,55,29.76,29.49,11,2,11,0.01
2013-12-3,40.1,35.3,31.6,25.6,21.0,16.8,72,56,44,30.00,29.76,21,7,21,0.00
2013-12-4,40.8,32.9,29.5,26.7,22.2,18.9,79,65,49,30.05,29.99,7,2,7,0.00
2013-12-5,35.4,30.7,28.0,26.2,22.2,18.1,80,70,61,30.02,29.90,9,2,9,0.00
2013-12-6,35.4,29.3,25.7,18.5,7.8,0.1,63,41,27,29.94,29.84,14,3,14,0.00
2013-12-7,32.7,25.9,22.5,25.9,5.7,0.5,97,42,29,30.15,29.94,14,4,14,0.00
2013-12-8,35.2,28.4,23.5,17.9,13.9,9.6,65,54,42,30.30,30.14,6,2,6,0.00
2013-12-9,33.8,31.5,26.1,26.5,21.2,15.9,76,65,56,30.31,30.22,8,3,8,0.00
2013-12-10,39.9,36.0,32.9,33.7,30.5,26.5,84,80,75,30.23,30.14,8,2,8,0.00
2013-12-11,39.2,35.9,32.5,36.3,31.6,28.5,90,84,81,30.15,29.87,2,0,2,0.00
2013-12-12,44.6,40.3,33.8,39.8,35.8,29.8,91,84,71,29.88,29.72,16,5,16,0.01
2013-12-13,48.4,45.9,43.3,44.6,42.1,39.7,89,86,85,30.12,29.80,12,3,12,0.00
2013-12-14,50.5,48.2,45.0,50.3,44.9,40.7,99,88,80,30.14,29.77,14,6,14,9.24
2013-12-15,55.6,50.5,46.0,53.1,47.0,43.0,99,88,84,30.04,29.77,19,6,19,9.26
2013-12-16,51.8,45.9,41.7,46.4,41.9,38.1,90,86,73,30.08,29.86,4,0,4,0.01
2013-12-17,43.9,42.3,41.5,40.2,39.2,38.0,91,89,86,29.86,29.69,8,1,8,0.00
2013-12-18,62.8,50.3,35.1,57.4,48.4,28.7,99,93,73,30.19,29.80,22,8,22,9.25
2013-12-19,41.4,36.6,32.2,31.3,24.4,18.9,79,61,52,30.20,30.00,17,3,17,0.00
2013-12-20,42.1,38.4,33.8,39.1,33.4,26.1,89,82,63,30.05,29.55,21,5,21,0.08
2013-12-21,43.7,42.5,40.5,41.0,39.7,37.8,90,90,89,30.02,29.68,2,0,2,0.12
2013-12-22,50.2,46.2,43.5,46.9,43.6,40.8,92,91,85,30.14,30.01,16,1,16,0.11
2013-12-23,55.4,48.7,42.1,49.6,44.0,38.5,88,84,73,30.38,29.97,24,6,24,0.05
2013-12-24,49.8,41.9,36.9,42.5,37.5,32.1,90,85,68,30.48,30.34,4,0,4,0.01
2013-12-25,44.4,39.4,36.5,38.4,35.4,32.1,90,85,77,30.39,30.23,6,1,6,0.00
2013-12-26,44.8,39.4,37.4,39.9,36.3,34.7,91,88,81,33.27,30.05,6,0,6,0.00
2013-12-27,45.9,42.1,37.6,43.4,39.6,34.9,92,91,90,30.22,29.96,13,1,13,0.04
2013-12-28,50.2,44.0,39.7,45.5,40.8,36.8,92,88,79,30.39,30.21,4,0,4,0.00
2013-12-29,58.8,49.2,39.2,54.6,46.4,-50.7,95,90,84,30.34,29.74,22,7,22,10.58
2013-12-30,44.4,42.5,40.5,41.1,39.5,37.8,91,89,86,29.85,29.67,14,1,14,0.00
2013-12-31,46.6,44.5,41.9,42.4,40.8,38.9,89,86,83,29.93,29.73,11,2,11,0.00
2014-1-1,45.3,42.9,41.0,42.3,40.0,38.0,92,89,85,29.96,29.77,4,0,4,0.00
2014-1-2,53.1,46.5,42.4,44.0,41.5,37.6,91,83,57,29.78,29.42,47,10,47,0.43